Brownsville, TX

11:49 AM CDT on September 02, 2014 (GMT -0500)
Brownsville-South Padre I International | Change Station
CLOSE
Current Station
Airport
Location: Brownsville,
Elevation: 20 ft
Nearby Weather Stations

Elev 20 ft 25.91 °N, 97.42 °W | Updated 56 minutes ago

Scattered Clouds
Scattered Clouds
88 °F
Feels Like 98 °F
N
12
Wind Variable Wind from ESE
Gusts 18 mph

Today
High -- | Low -- °F
--% Chance of Precip.
Yesterday
High -- | Low -- °F
Precip. -- in
7:10 AM 7:48 PM
First Quarter, 53% visible
Pressure 29.89 in
Visibility 10.0 miles
Clouds Few 2400 ft
Scattered Clouds 3000 ft
Heat Index 98 °F
Dew Point 76 °F
Humidity 67%
Rainfall 0.01 in
Snow Depth Not available.
UV 6 out of 12
Pollen 8.80 out of 12
Ozone Good
PM2.5 Good
Flu Activity Not available.
METAR KBRO 021553Z 11010G16KT 10SM FEW024 SCT030 31/24 A2989 RMK AO2 RAE06 SLP121 P0001 T03110244

More Conditions Fewer Conditions

Pressure 29.89 in
Visibility 10.0 miles
Clouds Few 2400 ft
Scattered Clouds 3000 ft
Heat Index 98 °F
Dew Point 76 °F
Humidity 67%
Rainfall 0.01 in
Snow Depth Not available.
UV 6 out of 12
Pollen 8.80 out of 12
Ozone Good
PM2.5 Good
Flu Activity Not available.
METAR KBRO 021553Z 11010G16KT 10SM FEW024 SCT030 31/24 A2989 RMK AO2 RAE06 SLP121 P0001 T03110244

More Conditions Fewer Conditions

Nowcast | as of 11:08 am CDT on September 2, 2014

Through 1 PM...showers continue to move northwest across parts of the Rio Grande Valley and ranchlands this morning. A light to moderate downpour will be possible with amounts ranging from a trace to a tenth of an inch.

×

10-Day Weather Forecast

Almanac

Astronomy

Sep. 02, 2014 Rise Set
Actual Time 7:10 AM CDT 7:48 PM CDT
Civil Twilight 6:47 AM CDT 8:11 PM CDT
Nautical Twilight 6:19 AM CDT 8:39 PM CDT
Astronomical Twilight 5:51 AM CDT 9:06 PM CDT
Moon 2:15 PM CDT 12:31 AM CDT
Length of Visible Light 13h 24m
Length of Day
12h 37m
Tomorrow will be 1m 27s shorter.
First Quarter, 53% of the Moon is Illuminated
Today
First Quarter
Sep 8
Full
Sep 15
Last Quarter
Sep 24
New
Oct 1
First Quarter

Today's Extremes

State Highs State Lows

Community

WunderPhotos

Upload Photos

1,749,716 photos uploaded!

WunderBlogs® & News

Nearby

Air Quality

  Air Quality AQ Index Pollutant
Yesterday Good
PM2.5
Yesterday Good
OZONE
Current Good
PM2.5
Current Good
OZONE
Tuesday Good
PM10
Tuesday Good
OZONE
Wednesday Good
PM10
Wednesday Good
OZONE
Thursday Good
PM10
Thursday Good
OZONE

Snow Depth

Station Depth Elevation
No new snow has been reported.

Earthquake Activity

City Distance Mag. Time & Date
No recent earthquake activity has been reported nearby.
Minimum magnitude displayed is 2.5.

Coastal Water Temperatures

Place Temperature
Port Isabel, TX 82.9 °F
Baffin Bay Point of Rocks, TX 82.9 °F
South Bird Island, TX 84.9 °F
Malaquite Beach (Corpus Christi), TX 84.9 °F
Packery Channel, TX 84.9 °F

Nearby Weather Stations